SOHO CELIAS Proton Monitor
Solar Wind Parameters for Carrington Rotation 2173 (hour averages)


Listed Parameters:

Measurement time (Year, Month, Day of Month, Day of Year, Hour, Minute, Second)
Proton speed [km/sec]
Proton density [protons per cubic centimeter]
Most probable proton thermal speed [km/sec]
Arrival direction [degrees from north-south, with + meaning FROM the south).
(SPEED=-1 means NOT AVAILABLE)

SOHO spacecraft coordinates: based on SOHO PRE orbit files
GSE X, Y, Z [Earth Radii] 1 RE == 6378 km
Heliocentric Range [106 km],
Heliographic Latitude and Longitude [deg].

FORMAT=(1X,I2,1X,I3,1X,I2,1X,I2,1X,I2,F7.1,3F7.2,3X,3F7.1,F7.1,F7.2,F8.2)



                              CELIAS/MTOF/PM DATA                      SOHO ORBIT DATA              
 InSitu_Start__Time       [km/s]  [cm-3] [km/s]  [deg]      [Re]   [Re]   [Re]  [Mkm]  [deg]  [deg]
 YY MON DY DOY:HH:MM:SS   SPEED     Np     Vth    N/S      GSE_X  GSE_Y  GSE_Z  RANGE  HGLAT  HGLONG
 16 JAN 21  21:20:00:00     512    7.4      45   -3.8      212.8 -102.3   -1.7  145.9   -5.2     0.2
 16 JAN 21  21:21:00:00     510    6.2      46   -2.3      212.8 -102.3   -1.6  145.9   -5.2   359.6
 16 JAN 21  21:22:00:00     495    6.1      43   -0.9      212.7 -102.3   -1.6  145.9   -5.2   359.1
 16 JAN 21  21:23:00:00     521    5.7      47   -0.9      212.7 -102.3   -1.6  145.9   -5.2   358.6
 16 JAN 22  22:00:00:00     507    6.2      45   -0.9      212.6 -102.3   -1.6  145.9   -5.2   358.0
 16 JAN 22  22:01:00:00     515    5.8      47    0.0      212.6 -102.3   -1.5  145.9   -5.2   357.5
 16 JAN 22  22:02:00:00     507    5.5      48   -0.3      212.5 -102.2   -1.5  145.9   -5.2   356.9
 16 JAN 22  22:03:00:00     506    5.2      47    0.1      212.5 -102.2   -1.5  145.9   -5.2   356.3
 16 JAN 22  22:04:00:00     525    4.4      47   -1.4      212.4 -102.2   -1.5  145.9   -5.2   355.8
 16 JAN 22  22:05:00:00     513    4.2      46    0.0      212.4 -102.2   -1.4  145.9   -5.2   355.2
 16 JAN 22  22:06:00:00     487    4.5      41    0.4      212.3 -102.2   -1.4  145.9   -5.2   354.7
 16 JAN 22  22:07:00:00     482    3.4      40   -0.4      212.3 -102.2   -1.4  145.9   -5.2   354.1
 16 JAN 22  22:08:00:00     468    4.2      41    0.5      212.2 -102.2   -1.4  145.9   -5.2   353.6
 16 JAN 22  22:09:00:00     461    3.5      44    1.0      212.2 -102.2   -1.3  145.9   -5.2   353.1
 16 JAN 22  22:10:00:00     474    3.7      40   -0.1      212.1 -102.2   -1.3  145.9   -5.2   352.5
 16 JAN 22  22:11:00:00     472    3.8      39   -0.2      212.1 -102.2   -1.3  145.9   -5.2   352.0
 16 JAN 22  22:12:00:00     472    4.0      40    0.5      212.0 -102.1   -1.3  145.9   -5.2   351.4
 16 JAN 22  22:13:00:00     468    3.7      38    0.6      212.0 -102.1   -1.2  145.9   -5.2   350.9
 16 JAN 22  22:14:00:00     488    3.2      39    0.3      211.9 -102.1   -1.2  145.9   -5.2   350.3
 16 JAN 22  22:15:00:00     467    3.5      36    0.2      211.9 -102.1   -1.2  145.9   -5.2   349.8
 16 JAN 22  22:16:00:00     474    3.1      39   -0.4      211.8 -102.1   -1.2  145.9   -5.3   349.2
 16 JAN 22  22:17:00:00     473    3.2      38   -1.2      211.8 -102.1   -1.1  145.9   -5.3   348.6
 16 JAN 22  22:18:00:00     487    3.4      43   -0.4      211.7 -102.1   -1.1  145.9   -5.3   348.1
 16 JAN 22  22:19:00:00     485    3.4      41   -1.9      211.7 -102.1   -1.1  145.9   -5.3   347.6
 16 JAN 22  22:20:00:00     475    3.4      44   -0.8      211.7 -102.1   -1.1  145.9   -5.3   347.0
 16 JAN 22  22:21:00:00     462    3.9      40   -0.3      211.6 -102.0   -1.0  145.9   -5.3   346.5
 16 JAN 22  22:22:00:00     464    4.6      41   -2.6      211.6 -102.0   -1.0  145.9   -5.3   346.0
 16 JAN 22  22:23:00:00     456    4.1      39    0.1      211.5 -102.0   -1.0  145.9   -5.3   345.4
 16 JAN 23  23:00:00:00     454    4.1      39    0.7      211.5 -102.0   -1.0  145.9   -5.3   344.8
 16 JAN 23  23:01:00:00     462    5.0      37    0.8      211.4 -102.0   -0.9  145.9   -5.3   344.3
 16 JAN 23  23:02:00:00     463    5.5      36   -0.4      211.4 -102.0   -0.9  145.9   -5.3   343.7
 16 JAN 23  23:03:00:00     466    6.6      36    0.6      211.3 -102.0   -0.9  145.9   -5.3   343.2
 16 JAN 23  23:04:00:00     465    6.5      37    1.3      211.3 -101.9   -0.8  145.9   -5.3   342.6
 16 JAN 23  23:05:00:00     478    7.9      38    3.3      211.2 -101.9   -0.8  145.9   -5.3   342.1
 16 JAN 23  23:06:00:00      -1   -1.0      -1   99.0      211.2 -101.9   -0.8  145.9   -5.3   341.5
 16 JAN 23  23:07:00:00      -1   -1.0      -1   99.0      211.1 -101.9   -0.8  145.9   -5.3   341.0
 16 JAN 23  23:08:00:00      -1   -1.0      -1   99.0      211.1 -101.9   -0.7  145.9   -5.3   340.5
 16 JAN 23  23:09:00:00      -1   -1.0      -1   99.0      211.0 -101.9   -0.7  145.9   -5.3   339.9
 16 JAN 23  23:10:00:00      -1   -1.0      -1   99.0      211.0 -101.9   -0.7  145.9   -5.3   339.4
 16 JAN 23  23:11:00:00      -1   -1.0      -1   99.0      210.9 -101.8   -0.7  145.9   -5.3   338.8
 16 JAN 23  23:12:00:00      -1   -1.0      -1   99.0      210.9 -101.8   -0.6  145.9   -5.3   338.2
 16 JAN 23  23:13:00:00      -1   -1.0      -1   99.0      210.8 -101.8   -0.6  145.9   -5.3   337.7
 16 JAN 23  23:14:00:00      -1   -1.0      -1   99.0      210.8 -101.8   -0.6  145.9   -5.3   337.1
 16 JAN 23  23:15:00:00      -1   -1.0      -1   99.0      210.8 -101.8   -0.6  145.9   -5.3   336.6
 16 JAN 23  23:16:00:00     460    3.0      37   -1.4      210.7 -101.8   -0.5  145.9   -5.3   336.0
 16 JAN 23  23:17:00:00     458    3.7      36   -1.9      210.7 -101.7   -0.5  145.9   -5.3   335.5
 16 JAN 23  23:18:00:00     450    2.9      37   -2.3      210.6 -101.7   -0.5  145.9   -5.3   335.0
 16 JAN 23  23:19:00:00     455    3.0      38   -2.0      210.6 -101.7   -0.5  145.9   -5.3   334.4
 16 JAN 23  23:20:00:00     448    2.8      38   -1.7      210.5 -101.7   -0.4  145.9   -5.3   333.9
 16 JAN 23  23:21:00:00     438    2.8      37   -2.0      210.5 -101.7   -0.4  145.9   -5.3   333.3
 16 JAN 23  23:22:00:00     438    3.4      36   -2.4      210.4 -101.6   -0.4  145.9   -5.3   332.8
 16 JAN 23  23:23:00:00     433    3.4      38   -2.7      210.4 -101.6   -0.4  145.9   -5.3   332.2
 16 JAN 24  24:00:00:00     423    2.9      37   -4.5      210.3 -101.6   -0.3  145.9   -5.4   331.7
 16 JAN 24  24:01:00:00     429    2.8      36   -2.3      210.3 -101.6   -0.3  145.9   -5.4   331.1
 16 JAN 24  24:02:00:00     432    3.5      37   -1.4      210.2 -101.6   -0.3  145.9   -5.4   330.5
 16 JAN 24  24:03:00:00     407    4.3      33   -1.4      210.2 -101.6   -0.3  145.9   -5.4   330.0
 16 JAN 24  24:04:00:00     406    4.3      33   -2.3      210.2 -101.5   -0.2  145.9   -5.4   329.5
 16 JAN 24  24:05:00:00     423    3.7      38   -2.4      210.1 -101.5   -0.2  145.9   -5.4   328.9
 16 JAN 24  24:06:00:00     423    3.2      37   -0.7      210.1 -101.5   -0.2  145.9   -5.4   328.4
 16 JAN 24  24:07:00:00     436    4.0      40   -2.0      210.0 -101.5   -0.2  145.9   -5.4   327.8
 16 JAN 24  24:08:00:00     447    4.5      38   -1.1      210.0 -101.5   -0.1  145.9   -5.4   327.3
 16 JAN 24  24:09:00:00     436    4.2      41   -1.9      209.9 -101.4   -0.1  145.9   -5.4   326.7
 16 JAN 24  24:10:00:00     437    4.7      38   -1.7      209.9 -101.4   -0.1  145.9   -5.4   326.2
 16 JAN 24  24:11:00:00     450    5.5      31   -2.0      209.8 -101.4    0.0  145.9   -5.4   325.6
 16 JAN 24  24:12:00:00     452    5.2      27   -2.5      209.8 -101.4    0.0  145.9   -5.4   325.1
 16 JAN 24  24:13:00:00     452    5.1      26   -2.5      209.8 -101.3    0.0  145.9   -5.4   324.5
 16 JAN 24  24:14:00:00     460    8.3      32   -3.4      209.7 -101.3    0.0  145.9   -5.4   324.0
 16 JAN 24  24:15:00:00     454    9.5      29   -2.4      209.7 -101.3    0.1  145.9   -5.4   323.4
 16 JAN 24  24:16:00:00     453   10.7      27   -2.0      209.6 -101.3    0.1  145.9   -5.4   322.9
 16 JAN 24  24:17:00:00     459   11.6      28   -4.0      209.6 -101.3    0.1  145.9   -5.4   322.3
 16 JAN 24  24:18:00:00     455    8.5      31   -3.5      209.5 -101.2    0.1  145.9   -5.4   321.8
 16 JAN 24  24:19:00:00     458   15.2      28   -4.2      209.5 -101.2    0.2  145.9   -5.4   321.3
 16 JAN 24  24:20:00:00     454   15.8      26   -4.6      209.5 -101.2    0.2  145.9   -5.4   320.7
 16 JAN 24  24:21:00:00     452   12.7      25   -4.7      209.4 -101.2    0.2  145.9   -5.4   320.1
 16 JAN 24  24:22:00:00     450    8.5      24   -4.4      209.4 -101.1    0.2  145.9   -5.4   319.6
 16 JAN 24  24:23:00:00     449    6.7      24   -4.3      209.3 -101.1    0.3  145.9   -5.4   319.0
 16 JAN 25  25:00:00:00     447    5.7      24   -4.7      209.3 -101.1    0.3  145.9   -5.4   318.5
 16 JAN 25  25:01:00:00     444    3.6      27   -4.3      209.2 -101.1    0.3  145.9   -5.4   317.9
 16 JAN 25  25:02:00:00     449    2.9      30   -4.4      209.2 -101.0    0.3  145.9   -5.4   317.4
 16 JAN 25  25:03:00:00     450    2.9      33   -5.3      209.2 -101.0    0.4  145.9   -5.4   316.8
 16 JAN 25  25:04:00:00     449    2.7      33   -5.4      209.1 -101.0    0.4  145.9   -5.4   316.3
 16 JAN 25  25:05:00:00     449    2.0      34   -4.5      209.1 -101.0    0.4  145.9   -5.4   315.8
 16 JAN 25  25:06:00:00     442    1.3      37   -3.9      209.0 -100.9    0.4  145.9   -5.4   315.2
 16 JAN 25  25:07:00:00     434    1.3      38   -3.6      209.0 -100.9    0.5  145.9   -5.4   314.7
 16 JAN 25  25:08:00:00     414    1.6      36   -2.5      208.9 -100.9    0.5  145.9   -5.4   314.1
 16 JAN 25  25:09:00:00     394    2.6      29   -2.3      208.9 -100.9    0.5  145.9   -5.5   313.6
 16 JAN 25  25:10:00:00     371    4.0      23   -1.9      208.9 -100.8    0.6  145.9   -5.5   313.0
 16 JAN 25  25:11:00:00     353    5.3      20   -2.3      208.8 -100.8    0.6  145.9   -5.5   312.4
 16 JAN 25  25:12:00:00     350    5.8      19   -2.0      208.8 -100.8    0.6  145.9   -5.5   311.9
 16 JAN 25  25:13:00:00     350    6.8      18   -2.0      208.7 -100.8    0.6  145.9   -5.5   311.3
 16 JAN 25  25:14:00:00     349    7.6      18   -1.8      208.7 -100.7    0.7  145.9   -5.5   310.8
 16 JAN 25  25:15:00:00     348    7.5      16   -1.7      208.7 -100.7    0.7  145.9   -5.5   310.3
 16 JAN 25  25:16:00:00     348    5.6      15   -1.7      208.6 -100.7    0.7  145.9   -5.5   309.7
 16 JAN 25  25:17:00:00     347    4.5      14   -0.9      208.6 -100.6    0.7  145.9   -5.5   309.2
 16 JAN 25  25:18:00:00     348    3.7      16   -1.0      208.5 -100.6    0.8  145.9   -5.5   308.6
 16 JAN 25  25:19:00:00     348    3.2      17   -0.7      208.5 -100.6    0.8  145.9   -5.5   308.1
 16 JAN 25  25:20:00:00     350    2.9      19   -1.4      208.5 -100.6    0.8  145.9   -5.5   307.5
 16 JAN 25  25:21:00:00     351    3.4      20   -1.8      208.4 -100.5    0.8  145.9   -5.5   307.0
 16 JAN 25  25:22:00:00     351    4.8      19   -2.0      208.4 -100.5    0.9  145.9   -5.5   306.4
 16 JAN 25  25:23:00:00     350    5.4      19   -1.1      208.3 -100.5    0.9  145.9   -5.5   305.9
 16 JAN 26  26:00:00:00     349    4.8      18   -0.6      208.3 -100.4    0.9  145.9   -5.5   305.3
 16 JAN 26  26:01:00:00     350    4.9      20   -1.6      208.3 -100.4    0.9  145.9   -5.5   304.8
 16 JAN 26  26:02:00:00     353    5.3      20   -1.8      208.2 -100.4    1.0  145.9   -5.6   304.2
 16 JAN 26  26:03:00:00     371    4.8      24   -2.7      208.2 -100.3    1.0  146.0   -5.6   303.7
 16 JAN 26  26:04:00:00     378    4.7      26   -3.3      208.1 -100.3    1.0  146.0   -5.6   303.2
 16 JAN 26  26:05:00:00     365    4.1      23   -2.8      208.1 -100.3    1.0  146.0   -5.6   302.6
 16 JAN 26  26:06:00:00     374    3.8      28   -2.6      208.1 -100.2    1.1  146.0   -5.6   302.0
 16 JAN 26  26:07:00:00     362    3.1      25   -2.3      208.0 -100.2    1.1  146.0   -5.6   301.5
 16 JAN 26  26:08:00:00     361    2.6      26   -1.6      208.0 -100.2    1.1  146.0   -5.6   300.9
 16 JAN 26  26:09:00:00     369    3.0      26   -0.6      207.9 -100.1    1.1  146.0   -5.6   300.4
 16 JAN 26  26:10:00:00     376    3.2      28   -0.1      207.9 -100.1    1.2  146.0   -5.6   299.8
 16 JAN 26  26:11:00:00     371    3.4      28    0.4      207.9 -100.1    1.2  146.0   -5.6   299.3
 16 JAN 26  26:12:00:00     361    2.5      30   -0.2      207.8 -100.0    1.2  146.0   -5.6   298.7
 16 JAN 26  26:13:00:00     339    2.8      28    0.2      207.8 -100.0    1.3  146.0   -5.6   298.2
 16 JAN 26  26:14:00:00     328    3.5      25    1.5      207.7 -100.0    1.3  146.0   -5.6   297.7
 16 JAN 26  26:15:00:00     310    4.1      20    1.8      207.7  -99.9    1.3  146.0   -5.6   297.1
 16 JAN 26  26:16:00:00     308    2.6      20    1.4      207.7  -99.9    1.3  146.0   -5.6   296.6
 16 JAN 26  26:17:00:00     342    3.9      25   -0.6      207.6  -99.9    1.4  146.0   -5.6   296.0
 16 JAN 26  26:18:00:00     354    5.1      25   -1.0      207.6  -99.8    1.4  146.0   -5.6   295.5
 16 JAN 26  26:19:00:00     356    4.8      25   -0.4      207.5  -99.8    1.4  146.0   -5.6   294.9
 16 JAN 26  26:20:00:00     350    4.4      25   -0.2      207.5  -99.8    1.4  146.0   -5.6   294.3
 16 JAN 26  26:21:00:00     350    3.9      26    0.4      207.5  -99.7    1.5  146.0   -5.6   293.8
 16 JAN 26  26:22:00:00     352    3.9      25    0.4      207.4  -99.7    1.5  146.0   -5.6   293.2
 16 JAN 26  26:23:00:00     348    3.1      27   -0.5      207.4  -99.7    1.5  146.0   -5.6   292.7
 16 JAN 27  27:00:00:00     343    1.9      29   -2.7      207.4  -99.6    1.5  146.0   -5.6   292.2
 16 JAN 27  27:01:00:00     353    1.8      29   -1.7      207.3  -99.6    1.6  146.0   -5.6   291.6
 16 JAN 27  27:02:00:00     356    2.2      31   -2.2      207.3  -99.6    1.6  146.0   -5.6   291.1
 16 JAN 27  27:03:00:00     338    2.1      27   -0.5      207.2  -99.5    1.6  146.0   -5.6   290.5
 16 JAN 27  27:04:00:00     340    2.6      27   -1.8      207.2  -99.5    1.6  146.0   -5.6   290.0
 16 JAN 27  27:05:00:00     322    2.8      22   -0.4      207.2  -99.4    1.7  146.0   -5.6   289.4
 16 JAN 27  27:06:00:00     313    3.8      20   -1.2      207.1  -99.4    1.7  146.0   -5.6   288.9
 16 JAN 27  27:07:00:00     324    7.2      21   -6.9      207.1  -99.4    1.7  146.0   -5.6   288.3
 16 JAN 27  27:08:00:00     337    4.1      24   -3.3      207.1  -99.3    1.7  146.0   -5.6   287.7
 16 JAN 27  27:09:00:00     342    2.5      27   -2.4      207.0  -99.3    1.8  146.0   -5.6   287.2
 16 JAN 27  27:10:00:00     342    2.6      26   -2.5      207.0  -99.3    1.8  146.0   -5.6   286.7
 16 JAN 27  27:11:00:00     339    3.7      26   -4.8      207.0  -99.2    1.8  146.0   -5.6   286.1
 16 JAN 27  27:12:00:00     340    4.9      26   -6.2      206.9  -99.2    1.8  146.0   -5.7   285.6
 16 JAN 27  27:13:00:00     341    5.6      26   -4.6      206.9  -99.1    1.9  146.0   -5.7   285.0
 16 JAN 27  27:14:00:00     342    5.9      26   -5.4      206.8  -99.1    1.9  146.0   -5.7   284.5
 16 JAN 27  27:15:00:00     346    6.3      25   -6.7      206.8  -99.1    1.9  146.0   -5.7   283.9
 16 JAN 27  27:16:00:00     342    5.9      25   -6.6      206.8  -99.0    2.0  146.0   -5.7   283.4
 16 JAN 27  27:17:00:00     343    5.7      25   -6.3      206.7  -99.0    2.0  146.0   -5.7   282.8
 16 JAN 27  27:18:00:00     342    4.9      26   -4.8      206.7  -98.9    2.0  146.0   -5.7   282.3
 16 JAN 27  27:19:00:00     353    6.3      23   -4.0      206.7  -98.9    2.0  146.0   -5.7   281.7
 16 JAN 27  27:20:00:00     344    4.3      24   -5.2      206.6  -98.8    2.1  146.0   -5.7   281.2
 16 JAN 27  27:21:00:00     348    3.8      26   -2.8      206.6  -98.8    2.1  146.0   -5.7   280.6
 16 JAN 27  27:22:00:00     343    3.4      25   -3.5      206.6  -98.8    2.1  146.0   -5.7   280.1
 16 JAN 27  27:23:00:00     343    3.0      24   -2.8      206.5  -98.7    2.1  146.0   -5.7   279.5
 16 JAN 28  28:00:00:00     343    3.2      22   -3.9      206.5  -98.7    2.2  146.0   -5.7   279.0
 16 JAN 28  28:01:00:00     343    2.5      23   -3.5      206.4  -98.6    2.2  146.0   -5.7   278.5
 16 JAN 28  28:02:00:00     337    2.6      24   -4.6      206.4  -98.6    2.2  146.0   -5.7   277.9
 16 JAN 28  28:03:00:00     334    4.3      23   -7.4      206.4  -98.6    2.2  146.0   -5.7   277.4
 16 JAN 28  28:04:00:00     336    5.7      23   -7.7      206.3  -98.5    2.3  146.0   -5.7   276.8
 16 JAN 28  28:05:00:00     330    6.2      23   -5.0      206.3  -98.5    2.3  146.0   -5.7   276.2
 16 JAN 28  28:06:00:00     350    4.3      28   -1.3      206.3  -98.4    2.3  146.0   -5.7   275.7
 16 JAN 28  28:07:00:00     355    4.0      30   -0.6      206.2  -98.4    2.3  146.0   -5.7   275.1
 16 JAN 28  28:08:00:00     343    4.4      29    0.0      206.2  -98.3    2.4  146.0   -5.7   274.6
 16 JAN 28  28:09:00:00     344    6.3      28    1.2      206.2  -98.3    2.4  146.0   -5.7   274.0
 16 JAN 28  28:10:00:00     343    7.7      27   -1.6      206.1  -98.2    2.4  146.0   -5.7   273.5
 16 JAN 28  28:11:00:00     336    9.5      26   -4.7      206.1  -98.2    2.4  146.0   -5.7   273.0
 16 JAN 28  28:12:00:00     343    8.8      27   -4.0      206.1  -98.1    2.5  146.0   -5.7   272.4
 16 JAN 28  28:13:00:00     340    7.5      26   -3.2      206.0  -98.1    2.5  146.0   -5.7   271.9
 16 JAN 28  28:14:00:00     343    6.4      27   -0.4      206.0  -98.1    2.5  146.0   -5.7   271.3
 16 JAN 28  28:15:00:00     340    4.5      27    0.7      206.0  -98.0    2.5  146.0   -5.7   270.8
 16 JAN 28  28:16:00:00     339    3.6      28    0.0      205.9  -98.0    2.6  146.0   -5.7   270.2
 16 JAN 28  28:17:00:00     338    3.9      27   -1.6      205.9  -97.9    2.6  146.0   -5.7   269.6
 16 JAN 28  28:18:00:00     337    3.7      27   -0.7      205.9  -97.9    2.6  146.0   -5.7   269.1
 16 JAN 28  28:19:00:00     339    3.0      27   -1.1      205.8  -97.8    2.7  146.0   -5.7   268.5
 16 JAN 28  28:20:00:00     332    3.8      26   -0.7      205.8  -97.8    2.7  146.0   -5.7   268.0
 16 JAN 28  28:21:00:00     321    5.3      23   -4.1      205.8  -97.7    2.7  146.0   -5.7   267.5
 16 JAN 28  28:22:00:00     317    4.6      22   -4.3      205.7  -97.7    2.7  146.0   -5.7   266.9
 16 JAN 28  28:23:00:00     316    4.0      22   -1.9      205.7  -97.6    2.8  146.0   -5.8   266.4
 16 JAN 29  29:00:00:00     321    2.5      23   -0.4      205.7  -97.6    2.8  146.0   -5.8   265.8
 16 JAN 29  29:01:00:00     318    2.3      23   -0.9      205.6  -97.5    2.8  146.0   -5.8   265.3
 16 JAN 29  29:02:00:00     306    2.7      21   -0.5      205.6  -97.5    2.8  146.0   -5.8   264.7
 16 JAN 29  29:03:00:00     312    2.1      21   -0.8      205.6  -97.4    2.9  146.0   -5.8   264.2
 16 JAN 29  29:04:00:00     308    1.9      20   -0.5      205.5  -97.4    2.9  146.0   -5.8   263.6
 16 JAN 29  29:05:00:00     306    2.1      20    0.0      205.5  -97.3    2.9  146.0   -5.8   263.1
 16 JAN 29  29:06:00:00     306    2.4      20    1.7      205.5  -97.3    2.9  146.0   -5.8   262.5
 16 JAN 29  29:07:00:00     298    2.2      19    1.4      205.4  -97.2    3.0  146.0   -5.8   262.0
 16 JAN 29  29:08:00:00     288    2.6      18    1.0      205.4  -97.2    3.0  146.0   -5.8   261.4
 16 JAN 29  29:09:00:00     285    2.9      17    1.3      205.4  -97.1    3.0  146.0   -5.8   260.9
 16 JAN 29  29:10:00:00     287    2.7      18    1.7      205.3  -97.1    3.0  146.0   -5.8   260.4
 16 JAN 29  29:11:00:00     292    2.7      19    1.9      205.3  -97.0    3.1  146.0   -5.8   259.8
 16 JAN 29  29:12:00:00     291    2.5      19    1.6      205.3  -97.0    3.1  146.0   -5.8   259.2
 16 JAN 29  29:13:00:00     290    2.2      18    1.8      205.2  -96.9    3.1  146.0   -5.8   258.7
 16 JAN 29  29:14:00:00     293    1.6      19    1.9      205.2  -96.9    3.1  146.0   -5.8   258.1
 16 JAN 29  29:15:00:00     298    1.7      19    2.1      205.2  -96.8    3.2  146.0   -5.8   257.6
 16 JAN 29  29:16:00:00     299    1.9      19    1.9      205.2  -96.8    3.2  146.0   -5.8   257.0
 16 JAN 29  29:17:00:00     306    2.1      19    1.9      205.1  -96.7    3.2  146.0   -5.8   256.5
 16 JAN 29  29:18:00:00     311    1.7      20    1.5      205.1  -96.7    3.2  146.0   -5.8   255.9
 16 JAN 29  29:19:00:00     309    2.0      20    2.4      205.1  -96.6    3.3  146.0   -5.8   255.4
 16 JAN 29  29:20:00:00     305    2.3      19    2.6      205.0  -96.5    3.3  146.0   -5.8   254.9
 16 JAN 29  29:21:00:00     309    1.5      20    1.4      205.0  -96.5    3.3  146.0   -5.8   254.3
 16 JAN 29  29:22:00:00     312    1.1      20    1.1      205.0  -96.4    3.3  146.0   -5.8   253.8
 16 JAN 29  29:23:00:00     311    1.0      20    0.3      204.9  -96.4    3.4  146.0   -5.8   253.2
 16 JAN 30  30:00:00:00     309    1.3      20    0.2      204.9  -96.3    3.4  146.0   -5.8   252.7
 16 JAN 30  30:01:00:00     302    1.9      19    0.1      204.9  -96.3    3.4  146.0   -5.8   252.1
 16 JAN 30  30:02:00:00     294    1.9      19   -0.4      204.8  -96.2    3.4  146.0   -5.8   251.5
 16 JAN 30  30:03:00:00     296    0.9      19    0.5      204.8  -96.2    3.5  146.0   -5.8   251.0
 16 JAN 30  30:04:00:00     299    1.3      19    0.0      204.8  -96.1    3.5  146.0   -5.8   250.4
 16 JAN 30  30:05:00:00     305    0.9      19   -0.2      204.8  -96.0    3.5  146.0   -5.8   249.9
 16 JAN 30  30:06:00:00     290    1.1      18    1.3      204.7  -96.0    3.6  146.0   -5.8   249.4
 16 JAN 30  30:07:00:00     290    0.9      18    1.0      204.7  -95.9    3.6  146.0   -5.8   248.8
 16 JAN 30  30:08:00:00     293    1.0      19    1.4      204.7  -95.9    3.6  146.1   -5.8   248.3
 16 JAN 30  30:09:00:00     292    1.1      19    1.6      204.6  -95.8    3.6  146.1   -5.8   247.7
 16 JAN 30  30:10:00:00     291    1.2      18    1.1      204.6  -95.8    3.7  146.1   -5.8   247.2
 16 JAN 30  30:11:00:00     291    1.2      19    0.5      204.6  -95.7    3.7  146.1   -5.8   246.6
 16 JAN 30  30:12:00:00     288    1.2      18    0.6      204.5  -95.6    3.7  146.1   -5.9   246.1
 16 JAN 30  30:13:00:00     286    1.1      17    0.6      204.5  -95.6    3.7  146.1   -5.9   245.5
 16 JAN 30  30:14:00:00     288    1.5      18    0.7      204.5  -95.5    3.8  146.1   -5.9   244.9
 16 JAN 30  30:15:00:00     279    2.3      16   -2.9      204.5  -95.5    3.8  146.1   -5.9   244.4
 16 JAN 30  30:16:00:00     278    2.2      16   -2.2      204.4  -95.4    3.8  146.1   -5.9   243.9
 16 JAN 30  30:17:00:00     279    3.0      16   -0.4      204.4  -95.3    3.8  146.1   -5.9   243.3
 16 JAN 30  30:18:00:00     280    4.2      16   -1.0      204.4  -95.3    3.9  146.1   -5.9   242.8
 16 JAN 30  30:19:00:00     284    2.8      17    0.0      204.3  -95.2    3.9  146.1   -5.9   242.2
 16 JAN 30  30:20:00:00     283    2.9      17   -0.4      204.3  -95.2    3.9  146.1   -5.9   241.7
 16 JAN 30  30:21:00:00     282    3.6      17   -0.4      204.3  -95.1    3.9  146.1   -5.9   241.1
 16 JAN 30  30:22:00:00     285    3.3      17    0.2      204.2  -95.0    4.0  146.1   -5.9   240.6
 16 JAN 30  30:23:00:00     288    2.5      18    1.3      204.2  -95.0    4.0  146.1   -5.9   240.0
 16 JAN 31  31:00:00:00     287    2.0      17    1.3      204.2  -94.9    4.0  146.1   -5.9   239.5
 16 JAN 31  31:01:00:00     290    2.3      18    0.8      204.2  -94.9    4.0  146.1   -5.9   238.9
 16 JAN 31  31:02:00:00     290    2.4      18   -1.4      204.1  -94.8    4.1  146.1   -5.9   238.4
 16 JAN 31  31:03:00:00     289    5.6      17   -2.4      204.1  -94.7    4.1  146.1   -5.9   237.8
 16 JAN 31  31:04:00:00     297    3.8      19   -3.1      204.1  -94.7    4.1  146.1   -5.9   237.3
 16 JAN 31  31:05:00:00     296    5.1      19   -3.5      204.0  -94.6    4.1  146.1   -5.9   236.7
 16 JAN 31  31:06:00:00     295    5.0      18   -2.8      204.0  -94.5    4.2  146.1   -5.9   236.2
 16 JAN 31  31:07:00:00     283    7.6      17   -2.6      204.0  -94.5    4.2  146.1   -6.0   235.7
 16 JAN 31  31:08:00:00     278    7.7      16   -1.8      204.0  -94.4    4.2  146.1   -6.0   235.1
 16 JAN 31  31:09:00:00     280    5.8      16    0.5      203.9  -94.3    4.2  146.1   -6.0   234.6
 16 JAN 31  31:10:00:00     279    4.0      16    2.3      203.9  -94.3    4.3  146.1   -6.0   234.0
 16 JAN 31  31:11:00:00     285    2.4      17    1.9      203.9  -94.2    4.3  146.1   -6.0   233.4
 16 JAN 31  31:12:00:00     285    2.5      17    1.0      203.8  -94.2    4.3  146.1   -6.0   232.9
 16 JAN 31  31:13:00:00     285    3.1      17    0.2      203.8  -94.1    4.3  146.1   -6.0   232.3
 16 JAN 31  31:14:00:00     289    2.8      18    0.3      203.8  -94.0    4.4  146.1   -6.0   231.8
 16 JAN 31  31:15:00:00     301    1.6      19    0.8      203.8  -94.0    4.4  146.1   -6.0   231.2
 16 JAN 31  31:16:00:00     303    1.8      19    1.3      203.7  -93.9    4.4  146.1   -6.0   230.7
 16 JAN 31  31:17:00:00     298    2.3      19    0.2      203.7  -93.8    4.4  146.1   -6.0   230.2
 16 JAN 31  31:18:00:00     297    3.5      19    0.6      203.7  -93.8    4.5  146.1   -6.0   229.6
 16 JAN 31  31:19:00:00     302    2.1      19    0.5      203.7  -93.7    4.5  146.1   -6.0   229.1
 16 JAN 31  31:20:00:00     300    2.8      19    0.0      203.6  -93.6    4.5  146.1   -6.0   228.5
 16 JAN 31  31:21:00:00     302    4.0      19   -0.2      203.6  -93.6    4.5  146.1   -6.0   228.0
 16 JAN 31  31:22:00:00     305    5.2      19   -0.8      203.6  -93.5    4.6  146.1   -6.0   227.4
 16 JAN 31  31:23:00:00     307    6.4      20    0.0      203.5  -93.4    4.6  146.1   -6.0   226.8
 16 FEB  1  32:00:00:00     307    5.7      20    0.6      203.5  -93.4    4.6  146.1   -6.0   226.3
 16 FEB  1  32:01:00:00     308    4.1      20    0.4      203.5  -93.3    4.6  146.1   -6.0   225.7
 16 FEB  1  32:02:00:00     293    4.8      19   -1.6      203.5  -93.2    4.7  146.1   -6.0   225.2
 16 FEB  1  32:03:00:00     302    6.4      19    0.3      203.4  -93.1    4.7  146.1   -6.0   224.7
 16 FEB  1  32:04:00:00     294    7.0      19   -0.9      203.4  -93.1    4.7  146.1   -6.0   224.1
 16 FEB  1  32:05:00:00     289    7.1      17   -0.5      203.4  -93.0    4.7  146.1   -6.0   223.6
 16 FEB  1  32:06:00:00     297    7.0      19   -3.3      203.4  -92.9    4.8  146.1   -6.0   223.0
 16 FEB  1  32:07:00:00     291    9.0      18   -2.4      203.3  -92.9    4.8  146.1   -6.0   222.5
 16 FEB  1  32:08:00:00     309    8.7      20   -2.1      203.3  -92.8    4.8  146.1   -6.0   221.9
 16 FEB  1  32:09:00:00     307    5.3      20   -3.4      203.3  -92.7    4.8  146.1   -6.0   221.4
 16 FEB  1  32:10:00:00     313    5.9      21   -1.6      203.3  -92.7    4.9  146.1   -6.0   220.8
 16 FEB  1  32:11:00:00     308    4.9      20   -1.3      203.2  -92.6    4.9  146.1   -6.0   220.2
 16 FEB  1  32:12:00:00     307    4.8      20   -0.5      203.2  -92.5    4.9  146.1   -6.0   219.7
 16 FEB  1  32:13:00:00     305    4.5      19    1.8      203.2  -92.4    4.9  146.1   -6.0   219.2
 16 FEB  1  32:14:00:00     300    4.4      19   -0.3      203.1  -92.4    5.0  146.1   -6.0   218.6
 16 FEB  1  32:15:00:00     306    3.8      19    0.7      203.1  -92.3    5.0  146.1   -6.0   218.1
 16 FEB  1  32:16:00:00     294    6.0      19   -0.6      203.1  -92.2    5.0  146.1   -6.0   217.6
 16 FEB  1  32:17:00:00     291    5.7      19    0.2      203.1  -92.2    5.0  146.1   -6.0   217.0
 16 FEB  1  32:18:00:00     292    4.6      19    0.7      203.0  -92.1    5.1  146.1   -6.0   216.4
 16 FEB  1  32:19:00:00     291    3.9      19    2.2      203.0  -92.0    5.1  146.1   -6.0   215.9
 16 FEB  1  32:20:00:00     291    4.3      19    3.6      203.0  -91.9    5.1  146.1   -6.0   215.3
 16 FEB  1  32:21:00:00     295    3.9      19    3.6      203.0  -91.9    5.1  146.1   -6.0   214.8
 16 FEB  1  32:22:00:00     298    3.6      19    3.5      202.9  -91.8    5.2  146.1   -6.1   214.2
 16 FEB  1  32:23:00:00     294    3.9      19    4.2      202.9  -91.7    5.2  146.1   -6.1   213.7
 16 FEB  2  33:00:00:00     295    3.4      19    3.9      202.9  -91.6    5.2  146.1   -6.1   213.1
 16 FEB  2  33:01:00:00     281    4.1      16    4.5      202.9  -91.6    5.2  146.1   -6.1   212.6
 16 FEB  2  33:02:00:00     279    8.1      16    5.6      202.8  -91.5    5.3  146.1   -6.1   212.1
 16 FEB  2  33:03:00:00     284    7.2      17    5.3      202.8  -91.4    5.3  146.1   -6.1   211.5
 16 FEB  2  33:04:00:00     286    9.0      17    5.3      202.8  -91.3    5.3  146.1   -6.1   211.0
 16 FEB  2  33:05:00:00     285   13.6      17    6.1      202.8  -91.3    5.3  146.1   -6.1   210.4
 16 FEB  2  33:06:00:00     281   15.3      17    6.2      202.7  -91.2    5.4  146.1   -6.1   209.9
 16 FEB  2  33:07:00:00     281   12.9      16    4.9      202.7  -91.1    5.4  146.1   -6.1   209.3
 16 FEB  2  33:08:00:00     279   10.8      15    3.9      202.7  -91.0    5.4  146.1   -6.1   208.7
 16 FEB  2  33:09:00:00     277    9.0      16    2.0      202.7  -91.0    5.4  146.1   -6.1   208.2
 16 FEB  2  33:10:00:00     282    9.9      17    3.3      202.6  -90.9    5.4  146.1   -6.1   207.6
 16 FEB  2  33:11:00:00     278    9.4      16    1.5      202.6  -90.8    5.5  146.1   -6.1   207.1
 16 FEB  2  33:12:00:00     282   11.7      17    2.6      202.6  -90.7    5.5  146.1   -6.1   206.6
 16 FEB  2  33:13:00:00     283   18.0      17    5.3      202.6  -90.6    5.5  146.1   -6.1   206.0
 16 FEB  2  33:14:00:00     294   13.8      18    4.1      202.5  -90.6    5.5  146.1   -6.1   205.5
 16 FEB  2  33:15:00:00     318   12.7      22    4.6      202.5  -90.5    5.6  146.1   -6.1   204.9
 16 FEB  2  33:16:00:00     339    9.5      29    2.3      202.5  -90.4    5.6  146.1   -6.1   204.4
 16 FEB  2  33:17:00:00     327   10.8      25    1.1      202.5  -90.3    5.6  146.1   -6.1   203.8
 16 FEB  2  33:18:00:00     322   11.1      24    0.9      202.4  -90.2    5.6  146.1   -6.1   203.3
 16 FEB  2  33:19:00:00     314   12.4      21    0.1      202.4  -90.2    5.7  146.1   -6.1   202.7
 16 FEB  2  33:20:00:00     316   12.8      21    3.4      202.4  -90.1    5.7  146.1   -6.1   202.1
 16 FEB  2  33:21:00:00     314    8.3      21    0.4      202.4  -90.0    5.7  146.1   -6.1   201.6
 16 FEB  2  33:22:00:00     316    7.0      22   -0.6      202.3  -89.9    5.7  146.1   -6.1   201.1
 16 FEB  2  33:23:00:00     313    7.2      21   -1.0      202.3  -89.8    5.8  146.1   -6.1   200.5
 16 FEB  3  34:00:00:00     315    7.5      22   -1.5      202.3  -89.8    5.8  146.1   -6.1   200.0
 16 FEB  3  34:01:00:00     327    9.1      25   -2.6      202.3  -89.7    5.8  146.1   -6.1   199.4
 16 FEB  3  34:02:00:00     321   10.1      24   -1.8      202.2  -89.6    5.8  146.1   -6.1   198.9
 16 FEB  3  34:03:00:00     345    5.8      28   -2.0      202.2  -89.5    5.9  146.1   -6.1   198.3
 16 FEB  3  34:04:00:00     345    7.8      27   -1.2      202.2  -89.4    5.9  146.1   -6.1   197.8
 16 FEB  3  34:05:00:00     346    8.9      27    1.0      202.2  -89.4    5.9  146.1   -6.1   197.2
 16 FEB  3  34:06:00:00     353    9.6      27    0.9      202.2  -89.3    5.9  146.2   -6.1   196.7
 16 FEB  3  34:07:00:00     355   10.5      26    1.2      202.1  -89.2    6.0  146.2   -6.1   196.1
 16 FEB  3  34:08:00:00     356   11.1      27    1.7      202.1  -89.1    6.0  146.2   -6.1   195.6
 16 FEB  3  34:09:00:00     349   11.2      28    2.1      202.1  -89.0    6.0  146.2   -6.1   195.0
 16 FEB  3  34:10:00:00     349   10.1      26    1.3      202.1  -88.9    6.0  146.2   -6.1   194.5
 16 FEB  3  34:11:00:00     347    9.4      26    1.0      202.0  -88.9    6.1  146.2   -6.1   193.9
 16 FEB  3  34:12:00:00     351   11.1      26    0.2      202.0  -88.8    6.1  146.2   -6.1   193.4
 16 FEB  3  34:13:00:00     355    9.7      26    1.3      202.0  -88.7    6.1  146.2   -6.1   192.9
 16 FEB  3  34:14:00:00     376    8.1      32    2.7      202.0  -88.6    6.1  146.2   -6.1   192.3
 16 FEB  3  34:15:00:00     375    7.3      35    3.8      201.9  -88.5    6.1  146.2   -6.2   191.7
 16 FEB  3  34:16:00:00     384    5.3      35    1.4      201.9  -88.4    6.2  146.2   -6.2   191.2
 16 FEB  3  34:17:00:00     369    7.3      28    2.8      201.9  -88.3    6.2  146.2   -6.2   190.6
 16 FEB  3  34:18:00:00     362    5.7      24    1.1      201.9  -88.3    6.2  146.2   -6.2   190.1
 16 FEB  3  34:19:00:00     368    6.3      26    3.0      201.8  -88.2    6.2  146.2   -6.2   189.5
 16 FEB  3  34:20:00:00     380    6.6      30    0.6      201.8  -88.1    6.3  146.2   -6.2   189.0
 16 FEB  3  34:21:00:00     384    5.7      28   -1.2      201.8  -88.0    6.3  146.2   -6.2   188.4
 16 FEB  3  34:22:00:00     371    5.4      25    1.0      201.8  -87.9    6.3  146.2   -6.2   187.9
 16 FEB  3  34:23:00:00     373    5.6      26    1.4      201.8  -87.8    6.3  146.2   -6.2   187.4
 16 FEB  4  35:00:00:00     368    5.2      25    2.3      201.7  -87.7    6.4  146.2   -6.2   186.8
 16 FEB  4  35:01:00:00     374    4.9      27    1.2      201.7  -87.7    6.4  146.2   -6.2   186.3
 16 FEB  4  35:02:00:00     370    5.6      26   -0.4      201.7  -87.6    6.4  146.2   -6.2   185.7
 16 FEB  4  35:03:00:00     373    6.4      24   -1.5      201.7  -87.5    6.4  146.2   -6.2   185.1
 16 FEB  4  35:04:00:00     388    6.4      28   -2.0      201.6  -87.4    6.5  146.2   -6.2   184.6
 16 FEB  4  35:05:00:00     412    4.3      34   -2.0      201.6  -87.3    6.5  146.2   -6.2   184.0
 16 FEB  4  35:06:00:00     388    5.5      29   -1.5      201.6  -87.2    6.5  146.2   -6.2   183.5
 16 FEB  4  35:07:00:00     388    6.4      29   -1.9      201.6  -87.1    6.5  146.2   -6.2   182.9
 16 FEB  4  35:08:00:00     401    5.4      32   -2.0      201.5  -87.0    6.6  146.2   -6.2   182.4
 16 FEB  4  35:09:00:00     413    5.7      35   -3.2      201.5  -86.9    6.6  146.2   -6.2   181.9
 16 FEB  4  35:10:00:00     428    5.5      39   -3.4      201.5  -86.9    6.6  146.2   -6.2   181.3
 16 FEB  4  35:11:00:00     419    9.4      37   -5.9      201.5  -86.8    6.6  146.2   -6.2   180.8
 16 FEB  4  35:12:00:00     427    6.8      37   -6.2      201.5  -86.7    6.6  146.2   -6.2   180.2
 16 FEB  4  35:13:00:00     410    5.5      33   -3.5      201.4  -86.6    6.7  146.2   -6.2   179.7
 16 FEB  4  35:14:00:00     403    5.5      31   -2.1      201.4  -86.5    6.7  146.2   -6.2   179.1
 16 FEB  4  35:15:00:00     436    7.5      37    0.1      201.4  -86.4    6.7  146.2   -6.2   178.6
 16 FEB  4  35:16:00:00     445    8.0      34   -2.7      201.4  -86.3    6.7  146.2   -6.2   178.0
 16 FEB  4  35:17:00:00     432    6.2      36   -1.4      201.3  -86.2    6.8  146.2   -6.2   177.4
 16 FEB  4  35:18:00:00     424    6.3      38    0.6      201.3  -86.1    6.8  146.2   -6.2   176.9
 16 FEB  4  35:19:00:00     424    5.8      37   -1.0      201.3  -86.0    6.8  146.2   -6.2   176.4
 16 FEB  4  35:20:00:00     416    5.3      36   -0.5      201.3  -85.9    6.8  146.2   -6.2   175.8
 16 FEB  4  35:21:00:00     408    5.9      32   -2.7      201.2  -85.8    6.9  146.2   -6.2   175.3
 16 FEB  4  35:22:00:00     402    6.2      31   -2.5      201.2  -85.8    6.9  146.2   -6.2   174.7
 16 FEB  4  35:23:00:00     385   11.8      43    0.4      201.2  -85.7    6.9  146.2   -6.2   174.2
 16 FEB  5  36:00:00:00     385    8.6      37   -0.6      201.2  -85.6    6.9  146.2   -6.2   173.6
 16 FEB  5  36:01:00:00     428    5.4      41   -3.1      201.2  -85.5    6.9  146.2   -6.2   173.1
 16 FEB  5  36:02:00:00     434    8.4      37   -4.4      201.1  -85.4    7.0  146.2   -6.2   172.5
 16 FEB  5  36:03:00:00     439   10.7      39   -5.4      201.1  -85.3    7.0  146.2   -6.2   172.0
 16 FEB  5  36:04:00:00     422    6.4      47   -0.6      201.1  -85.2    7.0  146.2   -6.2   171.4
 16 FEB  5  36:05:00:00     437    7.0      37   -2.9      201.1  -85.1    7.0  146.2   -6.2   170.9
 16 FEB  5  36:06:00:00     440    6.4      37   -1.8      201.0  -85.0    7.1  146.2   -6.2   170.3
 16 FEB  5  36:07:00:00     442    6.0      39   -1.9      201.0  -84.9    7.1  146.2   -6.2   169.8
 16 FEB  5  36:08:00:00     430    5.7      42   -0.5      201.0  -84.8    7.1  146.2   -6.2   169.3
 16 FEB  5  36:09:00:00     441    5.0      39    0.0      201.0  -84.7    7.1  146.2   -6.2   168.7
 16 FEB  5  36:10:00:00     443    5.3      39   -0.6      201.0  -84.6    7.2  146.2   -6.3   168.2
 16 FEB  5  36:11:00:00     439    5.8      40    0.4      200.9  -84.5    7.2  146.2   -6.3   167.6
 16 FEB  5  36:12:00:00     436    5.2      40   -0.1      200.9  -84.4    7.2  146.2   -6.3   167.0
 16 FEB  5  36:13:00:00     448    4.9      36   -0.2      200.9  -84.3    7.2  146.2   -6.3   166.5
 16 FEB  5  36:14:00:00     456    4.9      33   -1.7      200.9  -84.2    7.2  146.2   -6.3   165.9
 16 FEB  5  36:15:00:00     449    3.6      37   -0.4      200.9  -84.1    7.3  146.2   -6.3   165.4
 16 FEB  5  36:16:00:00     434    4.3      40   -1.0      200.8  -84.0    7.3  146.2   -6.3   164.8
 16 FEB  5  36:17:00:00     440    4.4      39    0.3      200.8  -83.9    7.3  146.2   -6.3   164.3
 16 FEB  5  36:18:00:00     432    4.2      40   -0.6      200.8  -83.8    7.3  146.2   -6.3   163.8
 16 FEB  5  36:19:00:00     451    3.9      37    1.0      200.8  -83.7    7.4  146.2   -6.3   163.2
 16 FEB  5  36:20:00:00     444    3.4      41   -0.8      200.7  -83.6    7.4  146.2   -6.3   162.7
 16 FEB  5  36:21:00:00     447    3.3      41   -1.8      200.7  -83.5    7.4  146.2   -6.3   162.1
 16 FEB  5  36:22:00:00     448    3.2      39   -0.9      200.7  -83.4    7.4  146.2   -6.3   161.6
 16 FEB  5  36:23:00:00     450    3.5      38   -0.5      200.7  -83.4    7.5  146.2   -6.3   161.0
 16 FEB  6  37:00:00:00     441    3.7      41    0.1      200.7  -83.3    7.5  146.2   -6.3   160.4
 16 FEB  6  37:01:00:00     442    3.9      40    1.3      200.6  -83.2    7.5  146.2   -6.3   159.9
 16 FEB  6  37:02:00:00     439    3.3      42    0.7      200.6  -83.1    7.5  146.2   -6.3   159.3
 16 FEB  6  37:03:00:00     436    3.2      43    0.0      200.6  -83.0    7.5  146.2   -6.3   158.8
 16 FEB  6  37:04:00:00     433    3.2      42    0.6      200.6  -82.9    7.6  146.2   -6.3   158.3
 16 FEB  6  37:05:00:00     432    3.3      41   -0.6      200.5  -82.8    7.6  146.2   -6.3   157.7
 16 FEB  6  37:06:00:00     433    3.4      41   -0.6      200.5  -82.7    7.6  146.2   -6.3   157.2
 16 FEB  6  37:07:00:00     435    3.2      40   -0.9      200.5  -82.6    7.6  146.2   -6.3   156.6
 16 FEB  6  37:08:00:00     434    3.2      40    0.0      200.5  -82.4    7.7  146.2   -6.4   156.1
 16 FEB  6  37:09:00:00     416    3.6      39   -1.3      200.5  -82.3    7.7  146.2   -6.4   155.5
 16 FEB  6  37:10:00:00     402    3.5      38   -1.2      200.4  -82.2    7.7  146.2   -6.4   155.0
 16 FEB  6  37:11:00:00     404    3.2      37   -0.4      200.4  -82.1    7.7  146.2   -6.4   154.4
 16 FEB  6  37:12:00:00     402    3.2      36    0.2      200.4  -82.0    7.7  146.2   -6.4   153.8
 16 FEB  6  37:13:00:00     397    3.4      34    0.1      200.4  -81.9    7.8  146.2   -6.4   153.3
 16 FEB  6  37:14:00:00     397    3.4      33    0.2      200.4  -81.8    7.8  146.2   -6.4   152.8
 16 FEB  6  37:15:00:00     404    3.6      35    0.8      200.3  -81.7    7.8  146.2   -6.4   152.2
 16 FEB  6  37:16:00:00     417    3.7      37    0.7      200.3  -81.6    7.8  146.2   -6.4   151.7
 16 FEB  6  37:17:00:00     431    3.2      39    1.1      200.3  -81.5    7.9  146.2   -6.4   151.1
 16 FEB  6  37:18:00:00     433    3.6      39    2.1      200.3  -81.4    7.9  146.2   -6.4   150.6
 16 FEB  6  37:19:00:00     429    3.3      36    2.9      200.2  -81.3    7.9  146.2   -6.4   150.0
 16 FEB  6  37:20:00:00     424    3.1      36    3.0      200.2  -81.2    7.9  146.2   -6.4   149.5
 16 FEB  6  37:21:00:00     403    4.2      33    2.1      200.2  -81.1    7.9  146.2   -6.4   148.9
 16 FEB  6  37:22:00:00     393    4.9      30    2.1      200.2  -81.0    8.0  146.3   -6.4   148.4
 16 FEB  6  37:23:00:00     390    4.7      30    1.5      200.2  -80.9    8.0  146.3   -6.4   147.8
 16 FEB  7  38:00:00:00     390    4.2      30    1.1      200.1  -80.8    8.0  146.3   -6.4   147.3
 16 FEB  7  38:01:00:00     398    4.1      32    1.4      200.1  -80.7    8.0  146.3   -6.4   146.7
 16 FEB  7  38:02:00:00     392    4.3      31    1.3      200.1  -80.6    8.1  146.3   -6.4   146.2
 16 FEB  7  38:03:00:00     383    5.1      28    1.1      200.1  -80.5    8.1  146.3   -6.4   145.6
 16 FEB  7  38:04:00:00     366    6.3      23    1.0      200.1  -80.4    8.1  146.3   -6.4   145.1
 16 FEB  7  38:05:00:00     368    8.3      24   -0.3      200.0  -80.3    8.1  146.3   -6.4   144.6
 16 FEB  7  38:06:00:00     362    8.8      22   -0.5      200.0  -80.2    8.1  146.3   -6.4   144.0
 16 FEB  7  38:07:00:00     367    9.9      24   -0.2      200.0  -80.1    8.2  146.3   -6.4   143.4
 16 FEB  7  38:08:00:00     364    9.0      23    1.0      200.0  -80.0    8.2  146.3   -6.4   142.9
 16 FEB  7  38:09:00:00     363    5.4      25    0.6      199.9  -79.8    8.2  146.3   -6.4   142.3
 16 FEB  7  38:10:00:00     360    5.2      23    0.2      199.9  -79.7    8.2  146.3   -6.4   141.8
 16 FEB  7  38:11:00:00     359    5.6      24    0.2      199.9  -79.6    8.2  146.3   -6.4   141.2
 16 FEB  7  38:12:00:00     364    7.7      22   -1.1      199.9  -79.5    8.3  146.3   -6.4   140.7
 16 FEB  7  38:13:00:00     360    7.4      22   -1.4      199.9  -79.4    8.3  146.3   -6.4   140.1
 16 FEB  7  38:14:00:00     360    6.6      22   -0.5      199.8  -79.3    8.3  146.3   -6.4   139.6
 16 FEB  7  38:15:00:00     361    5.1      23    0.3      199.8  -79.2    8.3  146.3   -6.4   139.1
 16 FEB  7  38:16:00:00     362    5.3      23    0.4      199.8  -79.1    8.4  146.3   -6.4   138.5
 16 FEB  7  38:17:00:00     362    5.1      24    0.4      199.8  -79.0    8.4  146.3   -6.4   138.0
 16 FEB  7  38:18:00:00     362    5.6      24    0.3      199.8  -78.9    8.4  146.3   -6.4   137.4
 16 FEB  7  38:19:00:00     362    6.0      23    0.2      199.7  -78.8    8.4  146.3   -6.4   136.9
 16 FEB  7  38:20:00:00     360    6.5      22   -0.4      199.7  -78.7    8.4  146.3   -6.4   136.3
 16 FEB  7  38:21:00:00     360    6.4      22   -0.3      199.7  -78.6    8.5  146.3   -6.4   135.7
 16 FEB  7  38:22:00:00     358    8.1      21   -0.7      199.7  -78.4    8.5  146.3   -6.4   135.2
 16 FEB  7  38:23:00:00     368    9.0      23   -1.0      199.6  -78.3    8.5  146.3   -6.4   134.6
 16 FEB  8  39:00:00:00     364    9.3      22   -1.4      199.6  -78.2    8.5  146.3   -6.4   134.1
 16 FEB  8  39:01:00:00     362   11.1      22   -1.7      199.6  -78.1    8.5  146.3   -6.4   133.6
 16 FEB  8  39:02:00:00     367   11.9      23   -2.7      199.6  -78.0    8.6  146.3   -6.4   133.0
 16 FEB  8  39:03:00:00     381   10.5      25   -4.0      199.6  -77.9    8.6  146.3   -6.4   132.5
 16 FEB  8  39:04:00:00     369    9.2      23   -4.0      199.5  -77.8    8.6  146.3   -6.4   131.9
 16 FEB  8  39:05:00:00     383    8.9      25   -5.7      199.5  -77.7    8.6  146.3   -6.4   131.4
 16 FEB  8  39:06:00:00     398    7.6      30   -5.3      199.5  -77.6    8.7  146.3   -6.4   130.8
 16 FEB  8  39:07:00:00     435    8.4      42   -4.5      199.5  -77.4    8.7  146.3   -6.5   130.3
 16 FEB  8  39:08:00:00     435    9.1      43   -6.6      199.5  -77.3    8.7  146.3   -6.5   129.7
 16 FEB  8  39:09:00:00     437    8.2      44   -6.7      199.4  -77.2    8.7  146.3   -6.5   129.1
 16 FEB  8  39:10:00:00     432    6.8      44   -6.8      199.4  -77.1    8.7  146.3   -6.5   128.6
 16 FEB  8  39:11:00:00     429    5.2      42   -6.7      199.4  -77.0    8.8  146.3   -6.5   128.1
 16 FEB  8  39:12:00:00     426    4.8      40   -7.5      199.4  -76.9    8.8  146.3   -6.5   127.5
 16 FEB  8  39:13:00:00     417    4.4      40   -7.3      199.4  -76.8    8.8  146.3   -6.5   127.0
 16 FEB  8  39:14:00:00     371    4.1      34   -6.5      199.3  -76.7    8.8  146.3   -6.5   126.5
 16 FEB  8  39:15:00:00     347    2.8      30   -4.0      199.3  -76.5    8.8  146.3   -6.5   125.9
 16 FEB  8  39:16:00:00     344    2.8      28   -1.8      199.3  -76.4    8.9  146.3   -6.5   125.3
 16 FEB  8  39:17:00:00     346    3.1      29   -0.7      199.3  -76.3    8.9  146.3   -6.5   124.8
 16 FEB  8  39:18:00:00     348    3.1      29   -1.2      199.2  -76.2    8.9  146.3   -6.5   124.2
 16 FEB  8  39:19:00:00     349    4.6      28   -0.1      199.2  -76.1    8.9  146.3   -6.5   123.7
 16 FEB  8  39:20:00:00     350    5.1      28    1.3      199.2  -76.0    8.9  146.3   -6.5   123.1
 16 FEB  8  39:21:00:00     340    3.8      26    2.1      199.2  -75.9    9.0  146.3   -6.5   122.6
 16 FEB  8  39:22:00:00     346    4.7      27    1.8      199.2  -75.8    9.0  146.3   -6.5   122.0
 16 FEB  8  39:23:00:00     359    6.6      23    1.0      199.1  -75.6    9.0  146.3   -6.5   121.5
 16 FEB  9  40:00:00:00     374    8.6      27   -0.9      199.1  -75.5    9.0  146.3   -6.5   121.0
 16 FEB  9  40:01:00:00     378    8.3      34   -0.3      199.1  -75.4    9.1  146.3   -6.5   120.4
 16 FEB  9  40:02:00:00     363    8.7      28   -0.4      199.1  -75.3    9.1  146.3   -6.5   119.9
 16 FEB  9  40:03:00:00     367    9.5      30    0.5      199.1  -75.2    9.1  146.3   -6.5   119.3
 16 FEB  9  40:04:00:00     363   14.2      34    0.4      199.0  -75.1    9.1  146.3   -6.5   118.7
 16 FEB  9  40:05:00:00     375   16.4      39    0.2      199.0  -74.9    9.1  146.3   -6.5   118.2
 16 FEB  9  40:06:00:00     374   23.1      40   -0.7      199.0  -74.8    9.2  146.3   -6.5   117.6
 16 FEB  9  40:07:00:00     399   16.6      42    1.9      199.0  -74.7    9.2  146.3   -6.5   117.1
 16 FEB  9  40:08:00:00     395   13.3      40   -0.3      198.9  -74.6    9.2  146.3   -6.5   116.5
 16 FEB  9  40:09:00:00     389    3.5      39   -1.4      198.9  -74.5    9.2  146.3   -6.5   116.0
 16 FEB  9  40:10:00:00     401    3.3      45    0.7      198.9  -74.4    9.2  146.3   -6.5   115.5
 16 FEB  9  40:11:00:00     415    5.6      45    2.2      198.9  -74.3    9.3  146.3   -6.5   114.9
 16 FEB  9  40:12:00:00     405    6.7      43    0.0      198.9  -74.1    9.3  146.3   -6.5   114.4
 16 FEB  9  40:13:00:00     409    6.5      45    2.7      198.8  -74.0    9.3  146.3   -6.5   113.8
 16 FEB  9  40:14:00:00     403    6.5      42    0.6      198.8  -73.9    9.3  146.3   -6.5   113.3
 16 FEB  9  40:15:00:00     392    6.4      42    2.8      198.8  -73.8    9.3  146.3   -6.5   112.7
 16 FEB  9  40:16:00:00     390    6.7      40    3.2      198.8  -73.7    9.4  146.3   -6.5   112.1
 16 FEB  9  40:17:00:00     376    7.8      36    1.8      198.8  -73.5    9.4  146.3   -6.5   111.6
 16 FEB  9  40:18:00:00     373    8.3      35    1.1      198.7  -73.4    9.4  146.3   -6.5   111.0
 16 FEB  9  40:19:00:00     374    8.0      33    0.8      198.7  -73.3    9.4  146.3   -6.5   110.5
 16 FEB  9  40:20:00:00     367    6.9      29   -0.9      198.7  -73.2    9.4  146.3   -6.5   110.0
 16 FEB  9  40:21:00:00     389    5.5      32    0.5      198.7  -73.1    9.5  146.3   -6.5   109.4
 16 FEB  9  40:22:00:00     376    6.5      28    1.8      198.7  -73.0    9.5  146.3   -6.5   108.9
 16 FEB  9  40:23:00:00     372    5.6      26    0.8      198.6  -72.8    9.5  146.3   -6.5   108.3
 16 FEB 10  41:00:00:00     367    5.9      24    0.3      198.6  -72.7    9.5  146.3   -6.5   107.8
 16 FEB 10  41:01:00:00     367    6.0      23    0.0      198.6  -72.6    9.5  146.3   -6.5   107.2
 16 FEB 10  41:02:00:00     354    6.4      21   -0.5      198.6  -72.5    9.6  146.3   -6.5   106.7
 16 FEB 10  41:03:00:00     353    6.1      21   -0.8      198.5  -72.4    9.6  146.3   -6.5   106.1
 16 FEB 10  41:04:00:00     358    6.0      21   -1.6      198.5  -72.2    9.6  146.3   -6.5   105.5
 16 FEB 10  41:05:00:00     360    5.0      22   -1.2      198.5  -72.1    9.6  146.3   -6.5   105.0
 16 FEB 10  41:06:00:00     356    5.4      21   -1.4      198.5  -72.0    9.6  146.3   -6.5   104.5
 16 FEB 10  41:07:00:00     363    4.1      23   -1.3      198.5  -71.9    9.7  146.3   -6.5   103.9
 16 FEB 10  41:08:00:00     370    2.1      32   -0.8      198.4  -71.8    9.7  146.3   -6.5   103.4
 16 FEB 10  41:09:00:00     374    1.5      38   -0.7      198.4  -71.6    9.7  146.3   -6.5   102.8
 16 FEB 10  41:10:00:00     348    1.9      33    0.5      198.4  -71.5    9.7  146.3   -6.6   102.3
 16 FEB 10  41:11:00:00     363    1.3      36    0.1      198.4  -71.4    9.7  146.4   -6.6   101.7
 16 FEB 10  41:12:00:00     358    1.4      36    1.0      198.4  -71.3    9.8  146.4   -6.6   101.2
 16 FEB 10  41:13:00:00     350    1.4      33    1.3      198.3  -71.2    9.8  146.4   -6.6   100.6
 16 FEB 10  41:14:00:00     348    1.4      33    2.3      198.3  -71.0    9.8  146.4   -6.6   100.1
 16 FEB 10  41:15:00:00     348    1.3      32    2.3      198.3  -70.9    9.8  146.4   -6.6    99.5
 16 FEB 10  41:16:00:00     358    1.1      35    1.5      198.3  -70.8    9.8  146.4   -6.6    99.0
 16 FEB 10  41:17:00:00     356    1.4      32    2.1      198.3  -70.7    9.9  146.4   -6.6    98.4
 16 FEB 10  41:18:00:00     363    1.8      37    2.9      198.2  -70.6    9.9  146.4   -6.6    97.9
 16 FEB 10  41:19:00:00     351    1.8      33    2.8      198.2  -70.4    9.9  146.4   -6.6    97.3
 16 FEB 10  41:20:00:00     350    1.5      30    2.4      198.2  -70.3    9.9  146.4   -6.6    96.8
 16 FEB 10  41:21:00:00     359    1.8      35    4.4      198.2  -70.2    9.9  146.4   -6.6    96.3
 16 FEB 10  41:22:00:00     365    1.6      33    3.4      198.2  -70.1   10.0  146.4   -6.6    95.7
 16 FEB 10  41:23:00:00     344    1.7      29    3.1      198.1  -69.9   10.0  146.4   -6.6    95.1
 16 FEB 11  42:00:00:00     339    1.1      30    1.4      198.1  -69.8   10.0  146.4   -6.6    94.6
 16 FEB 11  42:01:00:00     326    1.8      25    0.9      198.1  -69.7   10.0  146.4   -6.6    94.0
 16 FEB 11  42:02:00:00     308    3.1      21    0.2      198.1  -69.6   10.0  146.4   -6.6    93.5
 16 FEB 11  42:03:00:00     322    2.7      26    0.2      198.0  -69.5   10.0  146.4   -6.6    92.9
 16 FEB 11  42:04:00:00     318    2.8      25    0.0      198.0  -69.3   10.1  146.4   -6.6    92.4
 16 FEB 11  42:05:00:00     316    2.8      24    0.8      198.0  -69.2   10.1  146.4   -6.6    91.8
 16 FEB 11  42:06:00:00     311    3.2      23    0.6      198.0  -69.1   10.1  146.4   -6.6    91.3
 16 FEB 11  42:07:00:00     304    3.0      22    1.0      198.0  -69.0   10.1  146.4   -6.6    90.8
 16 FEB 11  42:08:00:00     304    2.8      22    0.9      197.9  -68.8   10.1  146.4   -6.6    90.2
 16 FEB 11  42:09:00:00     300    3.5      20    0.4      197.9  -68.7   10.2  146.4   -6.6    89.7
 16 FEB 11  42:10:00:00     300    3.9      19    0.1      197.9  -68.6   10.2  146.4   -6.6    89.1
 16 FEB 11  42:11:00:00     303    4.3      20   -0.7      197.9  -68.5   10.2  146.4   -6.6    88.5
 16 FEB 11  42:12:00:00     303    4.8      20   -0.3      197.9  -68.3   10.2  146.4   -6.6    88.0
 16 FEB 11  42:13:00:00     303    4.2      19    0.1      197.8  -68.2   10.2  146.4   -6.6    87.4
 16 FEB 11  42:14:00:00     304    4.3      20   -0.2      197.8  -68.1   10.3  146.4   -6.6    86.9
 16 FEB 11  42:15:00:00     310    4.8      22    1.2      197.8  -68.0   10.3  146.4   -6.6    86.3
 16 FEB 11  42:16:00:00     326    4.8      24    4.4      197.8  -67.8   10.3  146.4   -6.6    85.8
 16 FEB 11  42:17:00:00     350    2.6      30    3.3      197.8  -67.7   10.3  146.4   -6.6    85.3
 16 FEB 11  42:18:00:00     359    2.9      33    1.2      197.7  -67.6   10.3  146.4   -6.6    84.7
 16 FEB 11  42:19:00:00     349    2.5      31    0.9      197.7  -67.5   10.4  146.4   -6.6    84.2
 16 FEB 11  42:20:00:00     353    2.7      31   -3.1      197.7  -67.3   10.4  146.4   -6.6    83.6
 16 FEB 11  42:21:00:00     359    2.3      32   -0.9      197.7  -67.2   10.4  146.4   -6.6    83.1
 16 FEB 11  42:22:00:00     362    2.7      29    0.9      197.7  -67.1   10.4  146.4   -6.6    82.5
 16 FEB 11  42:23:00:00     362    2.5      30    1.7      197.6  -67.0   10.4  146.4   -6.6    82.0
 16 FEB 12  43:00:00:00     345    2.5      28    3.3      197.6  -66.8   10.4  146.4   -6.6    81.4
 16 FEB 12  43:01:00:00     356    6.5      25    4.3      197.6  -66.7   10.5  146.4   -6.6    80.8
 16 FEB 12  43:02:00:00     356    5.4      23    3.3      197.6  -66.6   10.5  146.4   -6.6    80.3
 16 FEB 12  43:03:00:00     352    9.2      21    5.1      197.5  -66.5   10.5  146.4   -6.6    79.8
 16 FEB 12  43:04:00:00     354   19.0      22    7.3      197.5  -66.3   10.5  146.4   -6.6    79.2
 16 FEB 12  43:05:00:00     362   12.2      23    5.3      197.5  -66.2   10.5  146.4   -6.6    78.7
 16 FEB 12  43:06:00:00     358    7.9      23    3.5      197.5  -66.1   10.6  146.4   -6.6    78.1
 16 FEB 12  43:07:00:00     361   10.2      27    3.0      197.5  -65.9   10.6  146.4   -6.6    77.6
 16 FEB 12  43:08:00:00     366    9.5      29   -2.1      197.4  -65.8   10.6  146.4   -6.6    77.0
 16 FEB 12  43:09:00:00     361    8.4      28   -0.6      197.4  -65.7   10.6  146.4   -6.6    76.5
 16 FEB 12  43:10:00:00     355    5.3      30   -2.7      197.4  -65.6   10.6  146.4   -6.6    75.9
 16 FEB 12  43:11:00:00     353    4.2      28   -0.3      197.4  -65.4   10.7  146.4   -6.6    75.4
 16 FEB 12  43:12:00:00     370    5.4      27    0.9      197.4  -65.3   10.7  146.4   -6.6    74.8
 16 FEB 12  43:13:00:00     360    6.3      26    2.8      197.3  -65.2   10.7  146.4   -6.6    74.3
 16 FEB 12  43:14:00:00     359    4.9      29   -0.6      197.3  -65.1   10.7  146.4   -6.6    73.7
 16 FEB 12  43:15:00:00     362    4.5      28   -1.7      197.3  -64.9   10.7  146.4   -6.6    73.2
 16 FEB 12  43:16:00:00     345    3.1      28   -3.5      197.3  -64.8   10.7  146.4   -6.6    72.7
 16 FEB 12  43:17:00:00     344    7.6      25    1.0      197.3  -64.7   10.8  146.4   -6.7    72.1
 16 FEB 12  43:18:00:00     342   14.5      24    2.0      197.2  -64.5   10.8  146.4   -6.7    71.5
 16 FEB 12  43:19:00:00     347   24.1      26    3.4      197.2  -64.4   10.8  146.4   -6.7    71.0
 16 FEB 12  43:20:00:00     346   27.7      25    4.4      197.2  -64.3   10.8  146.4   -6.7    70.4
 16 FEB 12  43:21:00:00     346   19.8      24    3.2      197.2  -64.2   10.8  146.4   -6.7    69.9
 16 FEB 12  43:22:00:00     336   12.3      24   -1.4      197.2  -64.0   10.9  146.4   -6.7    69.3
 16 FEB 12  43:23:00:00     336    9.4      26    0.0      197.1  -63.9   10.9  146.4   -6.7    68.8
 16 FEB 13  44:00:00:00     355    9.9      29    3.1      197.1  -63.8   10.9  146.4   -6.7    68.2
 16 FEB 13  44:01:00:00     354    8.1      31    2.0      197.1  -63.6   10.9  146.4   -6.7    67.7
 16 FEB 13  44:02:00:00     355   16.7      29    2.7      197.1  -63.5   10.9  146.4   -6.7    67.2
 16 FEB 13  44:03:00:00     346   21.7      27    2.4      197.1  -63.4   10.9  146.4   -6.7    66.6
 16 FEB 13  44:04:00:00     350   18.9      28    1.4      197.0  -63.3   11.0  146.4   -6.7    66.1
 16 FEB 13  44:05:00:00     377    7.8      38    0.1      197.0  -63.1   11.0  146.4   -6.7    65.5
 16 FEB 13  44:06:00:00     369   13.9      40    3.6      197.0  -63.0   11.0  146.4   -6.7    65.0
 16 FEB 13  44:07:00:00     368   17.5      40    3.2      197.0  -62.9   11.0  146.4   -6.7    64.4
 16 FEB 13  44:08:00:00     364   16.4      38    2.4      197.0  -62.7   11.0  146.4   -6.7    63.8
 16 FEB 13  44:09:00:00     374   16.8      40    1.6      196.9  -62.6   11.1  146.4   -6.7    63.3
 16 FEB 13  44:10:00:00     361   10.2      35    0.9      196.9  -62.5   11.1  146.4   -6.7    62.7
 16 FEB 13  44:11:00:00     360   11.4      34    0.5      196.9  -62.3   11.1  146.4   -6.7    62.2
 16 FEB 13  44:12:00:00     362   12.8      36    0.0      196.9  -62.2   11.1  146.4   -6.7    61.7
 16 FEB 13  44:13:00:00     358   14.4      34   -2.8      196.9  -62.1   11.1  146.4   -6.7    61.1
 16 FEB 13  44:14:00:00     367    9.5      29   -3.2      196.8  -62.0   11.1  146.4   -6.7    60.6
 16 FEB 13  44:15:00:00     394    4.6      31   -0.9      196.8  -61.8   11.2  146.4   -6.7    60.0
 16 FEB 13  44:16:00:00     382    4.7      27   -1.1      196.8  -61.7   11.2  146.4   -6.7    59.5
 16 FEB 13  44:17:00:00     383    4.5      27   -0.9      196.8  -61.6   11.2  146.4   -6.7    58.9
 16 FEB 13  44:18:00:00     407    4.1      33   -2.1      196.8  -61.4   11.2  146.4   -6.7    58.4
 16 FEB 13  44:19:00:00     387    4.7      29   -0.9      196.7  -61.3   11.2  146.5   -6.7    57.8
 16 FEB 13  44:20:00:00     388    4.9      28   -1.3      196.7  -61.2   11.2  146.5   -6.7    57.2
 16 FEB 13  44:21:00:00     388    4.2      28   -0.1      196.7  -61.0   11.3  146.5   -6.7    56.7
 16 FEB 13  44:22:00:00     386    5.1      27   -0.6      196.7  -60.9   11.3  146.5   -6.7    56.1
 16 FEB 13  44:23:00:00     382    5.4      26    0.4      196.7  -60.8   11.3  146.5   -6.8    55.6
 16 FEB 14  45:00:00:00     383    5.1      28    1.7      196.7  -60.6   11.3  146.5   -6.8    55.1
 16 FEB 14  45:01:00:00     382    5.0      29    1.6      196.6  -60.5   11.3  146.5   -6.8    54.5
 16 FEB 14  45:02:00:00     376    4.6      31    0.4      196.6  -60.4   11.4  146.5   -6.8    54.0
 16 FEB 14  45:03:00:00     374    4.8      35    2.1      196.6  -60.3   11.4  146.5   -6.8    53.4
 16 FEB 14  45:04:00:00     387    5.3      32    3.1      196.6  -60.1   11.4  146.5   -6.8    52.9
 16 FEB 14  45:05:00:00     375    5.5      26    2.6      196.6  -60.0   11.4  146.5   -6.8    52.3
 16 FEB 14  45:06:00:00     378    6.2      26    2.3      196.5  -59.9   11.4  146.5   -6.8    51.8
 16 FEB 14  45:07:00:00     376    6.6      25    2.2      196.5  -59.7   11.4  146.5   -6.8    51.2
 16 FEB 14  45:08:00:00     386    5.5      27    1.8      196.5  -59.6   11.5  146.5   -6.8    50.6
 16 FEB 14  45:09:00:00     378    5.6      25    1.1      196.5  -59.5   11.5  146.5   -6.8    50.1
 16 FEB 14  45:10:00:00     362    4.3      28   -1.9      196.5  -59.3   11.5  146.5   -6.8    49.6
 16 FEB 14  45:11:00:00     360    4.6      26   -2.0      196.4  -59.2   11.5  146.5   -6.8    49.0
 16 FEB 14  45:12:00:00     363    4.5      28   -1.0      196.4  -59.1   11.5  146.5   -6.8    48.5
 16 FEB 14  45:13:00:00     368    5.3      27    1.1      196.4  -58.9   11.5  146.5   -6.8    47.9
 16 FEB 14  45:14:00:00     377    4.2      27    0.6      196.4  -58.8   11.6  146.5   -6.8    47.4
 16 FEB 14  45:15:00:00     364    5.3      24    1.1      196.4  -58.7   11.6  146.5   -6.8    46.8
 16 FEB 14  45:16:00:00     363    5.8      22    0.8      196.3  -58.5   11.6  146.5   -6.8    46.3
 16 FEB 14  45:17:00:00     374    5.6      24    0.3      196.3  -58.4   11.6  146.5   -6.8    45.7
 16 FEB 14  45:18:00:00     371    6.3      24   -0.1      196.3  -58.3   11.6  146.5   -6.8    45.2
 16 FEB 14  45:19:00:00     382    5.6      29   -1.3      196.3  -58.1   11.6  146.5   -6.8    44.6
 16 FEB 14  45:20:00:00     375    6.8      26   -1.5      196.3  -58.0   11.7  146.5   -6.8    44.1
 16 FEB 14  45:21:00:00     365    8.4      23   -2.9      196.3  -57.9   11.7  146.5   -6.8    43.5
 16 FEB 14  45:22:00:00     374    5.4      24   -0.6      196.2  -57.7   11.7  146.5   -6.8    43.0
 16 FEB 14  45:23:00:00     357    5.2      25    0.2      196.2  -57.6   11.7  146.5   -6.8    42.5
 16 FEB 15  46:00:00:00     358    5.5      25   -0.2      196.2  -57.5   11.7  146.5   -6.8    41.9
 16 FEB 15  46:01:00:00     355    6.7      24   -2.3      196.2  -57.3   11.7  146.5   -6.8    41.4
 16 FEB 15  46:02:00:00     359    7.2      25   -2.3      196.2  -57.2   11.8  146.5   -6.8    40.8
 16 FEB 15  46:03:00:00     359    6.0      24   -0.8      196.1  -57.1   11.8  146.5   -6.8    40.2
 16 FEB 15  46:04:00:00     355    6.1      22   -0.7      196.1  -56.9   11.8  146.5   -6.8    39.7
 16 FEB 15  46:05:00:00     352    6.5      19    0.3      196.1  -56.8   11.8  146.5   -6.8    39.1
 16 FEB 15  46:06:00:00     353    8.4      20   -0.4      196.1  -56.7   11.8  146.5   -6.8    38.6
 16 FEB 15  46:07:00:00     352    9.3      20   -1.3      196.1  -56.5   11.8  146.5   -6.8    38.0
 16 FEB 15  46:08:00:00     368    9.7      23   -3.3      196.1  -56.4   11.9  146.5   -6.8    37.5
 16 FEB 15  46:09:00:00     387    7.5      28   -2.0      196.0  -56.3   11.9  146.5   -6.8    37.0
 16 FEB 15  46:10:00:00     403    9.5      32   -4.7      196.0  -56.1   11.9  146.5   -6.8    36.4
 16 FEB 15  46:11:00:00     408    8.1      34   -4.8      196.0  -56.0   11.9  146.5   -6.8    35.9
 16 FEB 15  46:12:00:00     403    7.8      32   -4.4      196.0  -55.8   11.9  146.5   -6.8    35.3
 16 FEB 15  46:13:00:00     396    7.2      30   -3.2      196.0  -55.7   11.9  146.5   -6.8    34.8
 16 FEB 15  46:14:00:00     389    6.9      29   -2.9      196.0  -55.6   12.0  146.5   -6.8    34.2
 16 FEB 15  46:15:00:00     398    5.4      31   -0.5      195.9  -55.4   12.0  146.5   -6.8    33.6
 16 FEB 15  46:16:00:00     412    5.3      35   -0.4      195.9  -55.3   12.0  146.5   -6.8    33.1
 16 FEB 15  46:17:00:00     426    4.7      39   -0.6      195.9  -55.2   12.0  146.5   -6.8    32.5
 16 FEB 15  46:18:00:00     431    5.1      39    0.8      195.9  -55.0   12.0  146.5   -6.8    32.0
 16 FEB 15  46:19:00:00     407    6.0      35    0.4      195.9  -54.9   12.0  146.5   -6.8    31.5
 16 FEB 15  46:20:00:00     400    7.1      33   -1.6      195.8  -54.8   12.1  146.5   -6.8    30.9
 16 FEB 15  46:21:00:00     407    7.5      34   -1.7      195.8  -54.6   12.1  146.5   -6.8    30.4
 16 FEB 15  46:22:00:00     402    7.8      32   -0.8      195.8  -54.5   12.1  146.5   -6.8    29.8
 16 FEB 15  46:23:00:00     399    8.3      32   -1.2      195.8  -54.4   12.1  146.5   -6.8    29.3
 16 FEB 16  47:00:00:00     396   11.1      30    1.7      195.8  -54.2   12.1  146.5   -6.8    28.7
 16 FEB 16  47:01:00:00     404   18.4      31    3.5      195.8  -54.1   12.1  146.5   -6.8    28.2
 16 FEB 16  47:02:00:00     410   10.5      34    2.7      195.7  -53.9   12.2  146.5   -6.8    27.6
 16 FEB 16  47:03:00:00     403    7.9      32    1.5      195.7  -53.8   12.2  146.5   -6.8    27.0
 16 FEB 16  47:04:00:00     423    5.0      37    1.4      195.7  -53.7   12.2  146.5   -6.8    26.5
 16 FEB 16  47:05:00:00     449    7.1      35    1.8      195.7  -53.5   12.2  146.5   -6.8    26.0
 16 FEB 16  47:06:00:00     444    9.6      35    2.1      195.7  -53.4   12.2  146.5   -6.8    25.4
 16 FEB 16  47:07:00:00     455   15.3      37    2.4      195.7  -53.3   12.2  146.5   -6.8    24.9
 16 FEB 16  47:08:00:00     463   18.8      43    0.3      195.6  -53.1   12.2  146.5   -6.8    24.3
 16 FEB 16  47:09:00:00     470   27.0      44    4.9      195.6  -53.0   12.3  146.5   -6.8    23.8
 16 FEB 16  47:10:00:00     484   18.9      54    2.3      195.6  -52.9   12.3  146.5   -6.8    23.2
 16 FEB 16  47:11:00:00     502   17.0      62   -0.1      195.6  -52.7   12.3  146.5   -6.8    22.7
 16 FEB 16  47:12:00:00     501   17.6      64    0.6      195.6  -52.6   12.3  146.5   -6.8    22.1
 16 FEB 16  47:13:00:00     527   16.1      71    0.8      195.6  -52.4   12.3  146.5   -6.8    21.6
 16 FEB 16  47:14:00:00     528   19.3      76    0.8      195.6  -52.3   12.3  146.5   -6.8    21.0
 16 FEB 16  47:15:00:00     548   16.1      75   -1.0      195.5  -52.2   12.4  146.5   -6.8    20.5
 16 FEB 16  47:16:00:00     576   13.3      62   -1.7      195.5  -52.0   12.4  146.5   -6.9    19.9
 16 FEB 16  47:17:00:00     572   10.2      52   -1.3      195.5  -51.9   12.4  146.5   -6.9    19.4
 16 FEB 16  47:18:00:00     580   10.3      54   -2.9      195.5  -51.8   12.4  146.5   -6.9    18.9
 16 FEB 16  47:19:00:00     589    9.3      56   -3.0      195.5  -51.6   12.4  146.5   -6.9    18.3
 16 FEB 16  47:20:00:00     597    8.7      57   -3.3      195.5  -51.5   12.4  146.5   -6.9    17.7
 16 FEB 16  47:21:00:00     601    8.8      58   -3.9      195.4  -51.3   12.5  146.5   -6.9    17.2
 16 FEB 16  47:22:00:00     606    8.5      58   -4.1      195.4  -51.2   12.5  146.5   -6.9    16.6
 16 FEB 16  47:23:00:00     575    8.5      55   -4.2      195.4  -51.1   12.5  146.5   -6.9    16.1
 16 FEB 17  48:00:00:00     560    8.2      51   -4.0      195.4  -50.9   12.5  146.5   -6.9    15.5
 16 FEB 17  48:01:00:00     558    7.2      52   -1.8      195.4  -50.8   12.5  146.6   -6.9    15.0
 16 FEB 17  48:02:00:00     553    7.3      51   -1.3      195.4  -50.7   12.5  146.6   -6.9    14.4
 16 FEB 17  48:03:00:00     555    7.9      48    1.0      195.4  -50.5   12.5  146.6   -6.9    13.9
 16 FEB 17  48:04:00:00     557    8.1      51   -0.3      195.3  -50.4   12.6  146.6   -6.9    13.3
 16 FEB 17  48:05:00:00     563    8.5      48   -0.1      195.3  -50.2   12.6  146.6   -6.9    12.8
 16 FEB 17  48:06:00:00     565    7.7      47   -1.1      195.3  -50.1   12.6  146.6   -6.9    12.3
 16 FEB 17  48:07:00:00     568    7.0      50    0.1      195.3  -50.0   12.6  146.6   -6.9    11.7
 16 FEB 17  48:08:00:00     567    6.9      51    0.7      195.3  -49.8   12.6  146.6   -6.9    11.1
 16 FEB 17  48:09:00:00     558    5.7      50   -1.5      195.3  -49.7   12.6  146.6   -6.9    10.6
 16 FEB 17  48:10:00:00     531    4.7      48   -1.4      195.2  -49.5   12.6  146.6   -6.9    10.0
 16 FEB 17  48:11:00:00     540    5.7      49   -1.0      195.2  -49.4   12.7  146.6   -6.9     9.5
 16 FEB 17  48:12:00:00     535    7.1      51    2.8      195.2  -49.3   12.7  146.6   -6.9     8.9
 16 FEB 17  48:13:00:00     530    7.0      49    1.6      195.2  -49.1   12.7  146.6   -6.9     8.4
 16 FEB 17  48:14:00:00     537    7.4      49    3.0      195.2  -49.0   12.7  146.6   -6.9     7.8
 16 FEB 17  48:15:00:00     528    7.2      48    2.1      195.2  -48.8   12.7  146.6   -6.9     7.3
 16 FEB 17  48:16:00:00     517    6.7      47    1.2      195.2  -48.7   12.7  146.6   -6.9     6.8
 16 FEB 17  48:17:00:00     527    6.4      46    2.5      195.1  -48.6   12.8  146.6   -6.9     6.2
 16 FEB 17  48:18:00:00     537    5.7      46    2.3      195.1  -48.4   12.8  146.6   -6.9     5.7
 16 FEB 17  48:19:00:00     540    4.4      47   -0.2      195.1  -48.3   12.8  146.6   -6.9     5.1
 16 FEB 17  48:20:00:00     552    4.3      47    1.1      195.1  -48.1   12.8  146.6   -6.9     4.6
 16 FEB 17  48:21:00:00     557    4.5      49    0.8      195.1  -48.0   12.8  146.6   -6.9     4.0
 16 FEB 17  48:22:00:00     569    4.5      51   -0.2      195.1  -47.9   12.8  146.6   -6.9     3.4
 16 FEB 17  48:23:00:00     582    5.5      58    0.4      195.1  -47.7   12.8  146.6   -6.9     2.9
 16 FEB 18  49:00:00:00     566    6.0      55    2.1      195.1  -47.6   12.9  146.6   -6.9     2.3
 16 FEB 18  49:01:00:00     567    5.0      53    0.9      195.0  -47.4   12.9  146.6   -6.9     1.8
 16 FEB 18  49:02:00:00     590    4.3      55   -1.2      195.0  -47.3   12.9  146.6   -6.9     1.3
 16 FEB 18  49:03:00:00     596    4.3      53    0.7      195.0  -47.2   12.9  146.6   -6.9     0.7